createdAt,value
2023-02-27T00:00:28.011Z,1025.53
2023-02-27T00:01:28.182Z,1025.53
2023-02-27T00:02:28.011Z,1025.56
2023-02-27T00:03:28.020Z,1025.52
2023-02-27T00:04:27.985Z,1025.51
2023-02-27T00:05:27.912Z,1025.56
2023-02-27T00:06:27.933Z,1025.56
2023-02-27T00:07:28.034Z,1025.56
2023-02-27T00:08:27.970Z,1025.56
2023-02-27T00:09:27.866Z,1025.56
2023-02-27T00:10:27.928Z,1025.50
2023-02-27T00:11:28.105Z,1025.55
2023-02-27T00:12:27.870Z,1025.52
2023-02-27T00:13:27.940Z,1025.56
2023-02-27T00:14:27.836Z,1025.50
2023-02-27T00:15:27.885Z,1025.51
2023-02-27T00:16:27.906Z,1025.50
2023-02-27T00:17:27.754Z,1025.47
2023-02-27T00:18:27.797Z,1025.49
2023-02-27T00:19:27.775Z,1025.51
2023-02-27T00:20:27.764Z,1025.47
2023-02-27T00:21:28.026Z,1025.50
2023-02-27T00:22:27.751Z,1025.51
2023-02-27T00:23:27.675Z,1025.45
2023-02-27T00:24:27.696Z,1025.42
2023-02-27T00:25:27.716Z,1025.46
2023-02-27T00:26:27.664Z,1025.43
2023-02-27T00:27:27.652Z,1025.46
2023-02-27T00:28:27.678Z,1025.45
2023-02-27T00:29:27.614Z,1025.49
2023-02-27T00:30:27.660Z,1025.49
2023-02-27T00:31:28.007Z,1025.54
2023-02-27T00:32:27.629Z,1025.43
2023-02-27T00:33:27.580Z,1025.50
2023-02-27T00:34:27.564Z,1025.48
2023-02-27T00:35:27.560Z,1025.52
2023-02-27T00:36:27.567Z,1025.51
2023-02-27T00:37:27.548Z,1025.50
2023-02-27T00:38:27.541Z,1025.51
2023-02-27T00:39:27.463Z,1025.48
2023-02-27T00:40:27.495Z,1025.44
2023-02-27T00:41:27.865Z,1025.46
2023-02-27T00:42:27.454Z,1025.44
2023-02-27T00:43:27.501Z,1025.43
2023-02-27T00:44:27.462Z,1025.47
2023-02-27T00:45:27.395Z,1025.45
2023-02-27T00:46:27.466Z,1025.42
2023-02-27T00:47:27.385Z,1025.38
2023-02-27T00:48:27.396Z,1025.37
2023-02-27T00:49:27.417Z,1025.40
2023-02-27T00:50:27.355Z,1025.41
2023-02-27T00:51:27.678Z,1025.38
2023-02-27T00:52:27.364Z,1025.39
2023-02-27T00:53:27.298Z,1025.36
2023-02-27T00:54:27.302Z,1025.35
2023-02-27T00:55:27.576Z,1025.40
2023-02-27T00:56:27.282Z,1025.36
2023-02-27T00:57:27.288Z,1025.44
2023-02-27T00:58:27.258Z,1025.41
2023-02-27T00:59:27.253Z,1025.36
2023-02-27T01:00:27.198Z,1025.38
2023-02-27T01:01:27.553Z,1025.36
2023-02-27T01:02:27.217Z,1025.39
2023-02-27T01:03:27.215Z,1025.39
2023-02-27T01:04:27.194Z,1025.35
2023-02-27T01:05:27.178Z,1025.31
2023-02-27T01:06:27.159Z,1025.35
2023-02-27T01:07:27.174Z,1025.32
2023-02-27T01:08:27.101Z,1025.32
2023-02-27T01:09:27.156Z,1025.33
2023-02-27T01:10:27.115Z,1025.40
2023-02-27T01:11:27.371Z,1025.37
2023-02-27T01:12:27.063Z,1025.37
2023-02-27T01:13:27.130Z,1025.39
2023-02-27T01:14:27.027Z,1025.41
2023-02-27T01:15:27.073Z,1025.36
2023-02-27T01:16:27.085Z,1025.43
2023-02-27T01:17:27.019Z,1025.40
2023-02-27T01:18:26.993Z,1025.39
2023-02-27T01:19:27.034Z,1025.37
2023-02-27T01:20:26.960Z,1025.34
2023-02-27T01:21:27.398Z,1025.33
2023-02-27T01:22:26.953Z,1025.34
2023-02-27T01:23:26.977Z,1025.37
2023-02-27T01:24:26.944Z,1025.30
2023-02-27T01:25:27.032Z,1025.35
2023-02-27T01:26:26.898Z,1025.35
2023-02-27T01:27:26.935Z,1025.38
2023-02-27T01:28:26.880Z,1025.35
2023-02-27T01:29:26.882Z,1025.36
2023-02-27T01:30:26.886Z,1025.36
2023-02-27T01:31:27.235Z,1025.35
2023-02-27T01:32:26.931Z,1025.33
2023-02-27T01:33:26.855Z,1025.35
2023-02-27T01:34:26.782Z,1025.34
2023-02-27T01:35:26.836Z,1025.30
2023-02-27T01:36:26.795Z,1025.36
2023-02-27T01:37:26.815Z,1025.31
2023-02-27T01:38:26.745Z,1025.36
2023-02-27T01:39:26.740Z,1025.36
2023-02-27T01:40:26.708Z,1025.38
2023-02-27T01:41:27.136Z,1025.39
2023-02-27T01:42:26.702Z,1025.38
2023-02-27T01:43:26.792Z,1025.41
2023-02-27T01:44:26.672Z,1025.35
2023-02-27T01:45:26.692Z,1025.35
2023-02-27T01:46:26.625Z,1025.38
2023-02-27T01:47:26.666Z,1025.38
2023-02-27T01:48:26.641Z,1025.47
2023-02-27T01:49:26.741Z,1025.43
2023-02-27T01:50:26.598Z,1025.41
2023-02-27T01:51:26.838Z,1025.41
2023-02-27T01:52:26.546Z,1025.41
2023-02-27T01:53:26.595Z,1025.41
2023-02-27T01:54:26.623Z,1025.37
2023-02-27T01:55:26.597Z,1025.35
2023-02-27T01:56:26.527Z,1025.36
2023-02-27T01:57:26.519Z,1025.32
2023-02-27T01:58:26.501Z,1025.32
2023-02-27T01:59:26.482Z,1025.29
2023-02-27T02:00:26.453Z,1025.29
2023-02-27T02:01:27.012Z,1025.30
2023-02-27T02:02:26.471Z,1025.34
2023-02-27T02:03:26.470Z,1025.32
2023-02-27T02:04:26.424Z,1025.33
2023-02-27T02:05:26.424Z,1025.31
2023-02-27T02:06:26.391Z,1025.31
2023-02-27T02:07:26.517Z,1025.30
2023-02-27T02:08:26.345Z,1025.33
2023-02-27T02:09:26.387Z,1025.32
2023-02-27T02:10:26.353Z,1025.30
2023-02-27T02:11:26.599Z,1025.33
2023-02-27T02:12:26.329Z,1025.31
2023-02-27T02:13:26.436Z,1025.33
2023-02-27T02:14:26.275Z,1025.36
2023-02-27T02:15:26.314Z,1025.35
2023-02-27T02:16:26.295Z,1025.36
2023-02-27T02:17:26.253Z,1025.35
2023-02-27T02:18:26.243Z,1025.34
2023-02-27T02:19:26.258Z,1025.36
2023-02-27T02:20:26.195Z,1025.34
2023-02-27T02:21:26.565Z,1025.36
2023-02-27T02:22:26.201Z,1025.35
2023-02-27T02:23:26.201Z,1025.33
2023-02-27T02:24:26.172Z,1025.36
2023-02-27T02:25:26.179Z,1025.33
2023-02-27T02:26:27.754Z,1025.31
2023-02-27T02:27:26.133Z,1025.30
2023-02-27T02:28:26.096Z,1025.30
2023-02-27T02:29:26.142Z,1025.32
2023-02-27T02:30:26.183Z,1025.32
2023-02-27T02:31:26.491Z,1025.28
2023-02-27T02:32:26.143Z,1025.27
2023-02-27T02:33:26.094Z,1025.27
2023-02-27T02:34:26.006Z,1025.23
2023-02-27T02:35:26.054Z,1025.30
2023-02-27T02:36:26.017Z,1025.26
2023-02-27T02:37:26.037Z,1025.26
2023-02-27T02:38:25.994Z,1025.24
2023-02-27T02:39:25.992Z,1025.23
2023-02-27T02:40:25.946Z,1025.21
2023-02-27T02:41:26.971Z,1025.21
2023-02-27T02:42:25.921Z,1025.22
2023-02-27T02:43:25.976Z,1025.21
2023-02-27T02:44:25.927Z,1025.19
2023-02-27T02:45:25.919Z,1025.18
2023-02-27T02:46:25.926Z,1025.22
2023-02-27T02:47:25.910Z,1025.16
2023-02-27T02:48:25.890Z,1025.18
2023-02-27T02:49:25.881Z,1025.22
2023-02-27T02:50:25.839Z,1025.24
2023-02-27T02:51:26.102Z,1025.21
2023-02-27T02:52:25.783Z,1025.20
2023-02-27T02:53:31.081Z,1025.23
2023-02-27T02:54:26.801Z,1025.30
2023-02-27T02:55:25.798Z,1025.28
2023-02-27T02:56:25.759Z,1025.27
2023-02-27T02:57:25.754Z,1025.24
2023-02-27T02:58:25.730Z,1025.25
2023-02-27T02:59:25.721Z,1025.30
2023-02-27T03:00:25.829Z,1025.31
2023-02-27T03:01:26.040Z,1025.31
2023-02-27T03:02:25.672Z,1025.32
2023-02-27T03:03:25.703Z,1025.37
2023-02-27T03:04:25.718Z,1025.41
2023-02-27T03:05:25.658Z,1025.39
2023-02-27T03:06:25.769Z,1025.42
2023-02-27T03:07:25.662Z,1025.42
2023-02-27T03:08:25.608Z,1025.43
2023-02-27T03:09:25.654Z,1025.42
2023-02-27T03:10:25.559Z,1025.46
2023-02-27T03:11:25.965Z,1025.46
2023-02-27T03:12:25.604Z,1025.54
2023-02-27T03:13:25.578Z,1025.44
2023-02-27T03:14:25.537Z,1025.51
2023-02-27T03:15:25.544Z,1025.46
2023-02-27T03:16:25.516Z,1025.51
2023-02-27T03:17:25.531Z,1025.48
2023-02-27T03:18:25.527Z,1025.46
2023-02-27T03:19:25.472Z,1025.49
2023-02-27T03:20:25.438Z,1025.46
2023-02-27T03:21:25.826Z,1025.49
2023-02-27T03:22:25.428Z,1025.50
2023-02-27T03:23:25.453Z,1025.48
2023-02-27T03:24:25.526Z,1025.43
2023-02-27T03:25:25.395Z,1025.45
2023-02-27T03:26:25.392Z,1025.52
2023-02-27T03:27:25.368Z,1025.55
2023-02-27T03:28:25.335Z,1025.58
2023-02-27T03:29:25.411Z,1025.60
2023-02-27T03:30:25.354Z,1025.57
2023-02-27T03:31:25.707Z,1025.63
2023-02-27T03:32:25.389Z,1025.62
2023-02-27T03:33:25.295Z,1025.60
2023-02-27T03:34:25.276Z,1025.61
2023-02-27T03:35:25.300Z,1025.61
2023-02-27T03:36:25.291Z,1025.57
2023-02-27T03:37:25.256Z,1025.61
2023-02-27T03:38:25.233Z,1025.58
2023-02-27T03:39:25.215Z,1025.61
2023-02-27T03:40:25.182Z,1025.59
2023-02-27T03:41:25.687Z,1025.58
2023-02-27T03:42:25.287Z,1025.55
2023-02-27T03:43:25.193Z,1025.60
2023-02-27T03:44:26.117Z,1025.60
2023-02-27T03:45:25.160Z,1025.59
2023-02-27T03:46:25.167Z,1025.58
2023-02-27T03:47:25.108Z,1025.60
2023-02-27T03:48:25.125Z,1025.61
2023-02-27T03:49:25.133Z,1025.63
2023-02-27T03:50:25.076Z,1025.61
2023-02-27T03:51:25.293Z,1025.63
2023-02-27T03:52:25.015Z,1025.61
2023-02-27T03:53:25.065Z,1025.62
2023-02-27T03:54:25.119Z,1025.69
2023-02-27T03:55:25.146Z,1025.67
2023-02-27T03:56:25.040Z,1025.68
2023-02-27T03:57:24.991Z,1025.68
2023-02-27T03:58:24.988Z,1025.72
2023-02-27T03:59:24.974Z,1025.74
2023-02-27T04:00:24.972Z,1025.70
2023-02-27T04:01:25.257Z,1025.77
2023-02-27T04:02:24.903Z,1025.78
2023-02-27T04:03:24.952Z,1025.81
2023-02-27T04:04:24.931Z,1025.78
2023-02-27T04:05:24.890Z,1025.80
2023-02-27T04:06:25.007Z,1025.80
2023-02-27T04:07:25.017Z,1025.79
2023-02-27T04:08:24.848Z,1025.76
2023-02-27T04:09:24.886Z,1025.76
2023-02-27T04:10:24.808Z,1025.80
2023-02-27T04:11:24.956Z,1025.77
2023-02-27T04:12:24.823Z,1025.81
2023-02-27T04:13:24.798Z,1025.76
2023-02-27T04:14:24.759Z,1025.76
2023-02-27T04:15:24.765Z,1025.75
2023-02-27T04:16:24.789Z,1025.77
2023-02-27T04:17:24.753Z,1025.75
2023-02-27T04:18:24.754Z,1025.75
2023-02-27T04:19:24.730Z,1025.70
2023-02-27T04:20:24.700Z,1025.70
2023-02-27T04:21:24.831Z,1025.69
2023-02-27T04:22:24.653Z,1025.72
2023-02-27T04:23:24.698Z,1025.71
2023-02-27T04:24:24.762Z,1025.69
2023-02-27T04:25:25.458Z,1025.70
2023-02-27T04:26:24.625Z,1025.71
2023-02-27T04:27:24.638Z,1025.73
2023-02-27T04:28:24.577Z,1025.77
2023-02-27T04:29:24.617Z,1025.77
2023-02-27T04:30:24.584Z,1025.74
2023-02-27T04:31:24.986Z,1025.75
2023-02-27T04:32:24.674Z,1025.78
2023-02-27T04:33:24.557Z,1025.83
2023-02-27T04:34:24.538Z,1025.82
2023-02-27T04:35:24.514Z,1025.84
2023-02-27T04:36:24.526Z,1025.83
2023-02-27T04:37:24.522Z,1025.84
2023-02-27T04:38:24.480Z,1025.90
2023-02-27T04:39:24.470Z,1025.85
2023-02-27T04:40:24.426Z,1025.91
2023-02-27T04:41:24.677Z,1025.88
2023-02-27T04:42:24.441Z,1025.90
2023-02-27T04:43:24.494Z,1025.98
2023-02-27T04:44:24.413Z,1026.01
2023-02-27T04:45:24.420Z,1026.04
2023-02-27T04:46:24.381Z,1026.03
2023-02-27T04:47:24.372Z,1026.01
2023-02-27T04:48:24.378Z,1026.02
2023-02-27T04:49:24.395Z,1026.04
2023-02-27T04:50:24.315Z,1026.03
2023-02-27T04:51:24.506Z,1026.05
2023-02-27T04:52:24.302Z,1026.06
2023-02-27T04:53:24.298Z,1026.04
2023-02-27T04:54:24.369Z,1026.10
2023-02-27T04:55:24.326Z,1026.07
2023-02-27T04:56:24.246Z,1026.12
2023-02-27T04:57:24.331Z,1026.07
2023-02-27T04:58:25.352Z,1026.11
2023-02-27T04:59:24.233Z,1026.07
2023-02-27T05:00:24.238Z,1026.08
2023-02-27T05:01:24.234Z,1026.10
2023-02-27T05:02:24.235Z,1026.09
2023-02-27T05:03:24.215Z,1026.14
2023-02-27T05:04:24.165Z,1026.11
2023-02-27T05:05:24.143Z,1026.10
2023-02-27T05:06:24.177Z,1026.11
2023-02-27T05:07:24.117Z,1026.13
2023-02-27T05:08:24.078Z,1026.09
2023-02-27T05:09:24.163Z,1026.11
2023-02-27T05:10:24.096Z,1026.04
2023-02-27T05:11:24.038Z,1026.05
2023-02-27T05:12:24.245Z,1026.07
2023-02-27T05:13:24.054Z,1026.11
2023-02-27T05:14:24.020Z,1026.10
2023-02-27T05:15:24.029Z,1026.11
2023-02-27T05:16:24.905Z,1026.09
2023-02-27T05:17:23.956Z,1026.12
2023-02-27T05:18:24.042Z,1026.10
2023-02-27T05:19:23.931Z,1026.13
2023-02-27T05:20:23.964Z,1026.07
2023-02-27T05:21:23.938Z,1026.14
2023-02-27T05:22:23.912Z,1026.08
2023-02-27T05:23:23.930Z,1026.14
2023-02-27T05:24:23.980Z,1026.18
2023-02-27T05:25:23.864Z,1026.17
2023-02-27T05:26:23.890Z,1026.22
2023-02-27T05:27:23.861Z,1026.24
2023-02-27T05:28:23.880Z,1026.22
2023-02-27T05:29:23.817Z,1026.27
2023-02-27T05:30:23.952Z,1026.24
2023-02-27T05:31:23.844Z,1026.27
2023-02-27T05:32:23.853Z,1026.25
2023-02-27T05:33:23.782Z,1026.29
2023-02-27T05:34:23.806Z,1026.26
2023-02-27T05:35:23.760Z,1026.26
2023-02-27T05:36:23.804Z,1026.28
2023-02-27T05:37:23.716Z,1026.16
2023-02-27T05:38:23.739Z,1026.21
2023-02-27T05:39:23.708Z,1026.19
2023-02-27T05:40:23.700Z,1026.23
2023-02-27T05:41:23.669Z,1026.22
2023-02-27T05:42:23.808Z,1026.18
2023-02-27T05:43:23.632Z,1026.23
2023-02-27T05:44:23.649Z,1026.24
2023-02-27T05:45:23.639Z,1026.21
2023-02-27T05:46:23.630Z,1026.26
2023-02-27T05:47:23.615Z,1026.24
2023-02-27T05:48:23.745Z,1026.24
2023-02-27T05:49:23.560Z,1026.28
2023-02-27T05:50:23.598Z,1026.23
2023-02-27T05:51:23.522Z,1026.26
2023-02-27T05:52:23.544Z,1026.26
2023-02-27T05:53:23.543Z,1026.24
2023-02-27T05:54:23.540Z,1026.26
2023-02-27T05:55:23.493Z,1026.28
2023-02-27T05:56:23.529Z,1026.33
2023-02-27T05:57:23.461Z,1026.30
2023-02-27T05:58:23.459Z,1026.35
2023-02-27T05:59:23.442Z,1026.35
2023-02-27T06:00:23.505Z,1026.32
2023-02-27T06:01:23.414Z,1026.36
2023-02-27T06:02:23.529Z,1026.32
2023-02-27T06:03:23.539Z,1026.32
2023-02-27T06:04:23.413Z,1026.33
2023-02-27T06:05:23.387Z,1026.40
2023-02-27T06:06:23.418Z,1026.41
2023-02-27T06:07:23.361Z,1026.36
2023-02-27T06:08:23.383Z,1026.40
2023-02-27T06:09:23.302Z,1026.45
2023-02-27T06:10:23.351Z,1026.44
2023-02-27T06:11:23.295Z,1026.48
2023-02-27T06:12:23.330Z,1026.44
2023-02-27T06:13:23.288Z,1026.49
2023-02-27T06:14:23.281Z,1026.52
2023-02-27T06:15:23.269Z,1026.53
2023-02-27T06:16:23.380Z,1026.56
2023-02-27T06:17:23.219Z,1026.57
2023-02-27T06:18:23.360Z,1026.51
2023-02-27T06:19:23.181Z,1026.59
2023-02-27T06:20:23.190Z,1026.60
2023-02-27T06:21:23.180Z,1026.63
2023-02-27T06:22:23.173Z,1026.62
2023-02-27T06:23:23.157Z,1026.62
2023-02-27T06:24:23.218Z,1026.65
2023-02-27T06:25:23.106Z,1026.67
2023-02-27T06:26:23.151Z,1026.68
2023-02-27T06:27:23.087Z,1026.62
2023-02-27T06:28:23.093Z,1026.69
2023-02-27T06:29:23.078Z,1026.69
2023-02-27T06:30:23.123Z,1026.67
2023-02-27T06:31:23.031Z,1026.71
2023-02-27T06:32:23.052Z,1026.74
2023-02-27T06:33:23.053Z,1026.68
2023-02-27T06:34:23.023Z,1026.67
2023-02-27T06:35:23.309Z,1026.68
2023-02-27T06:36:25.419Z,1026.71
2023-02-27T06:38:34.055Z,1026.64
2023-02-27T06:39:33.971Z,1026.67
2023-02-27T06:40:33.943Z,1026.68
2023-02-27T06:41:34.033Z,1026.73
2023-02-27T06:42:33.909Z,1026.68
2023-02-27T06:43:33.920Z,1026.67
2023-02-27T06:44:33.856Z,1026.67
2023-02-27T06:45:33.866Z,1026.70
2023-02-27T06:46:33.929Z,1026.75
2023-02-27T06:47:33.916Z,1026.72
2023-02-27T06:48:33.834Z,1026.73
2023-02-27T06:49:33.869Z,1026.73
2023-02-27T06:50:33.810Z,1026.81
2023-02-27T06:51:33.843Z,1026.77
2023-02-27T06:52:33.793Z,1026.74
2023-02-27T06:53:33.830Z,1026.73
2023-02-27T06:54:33.782Z,1026.72
2023-02-27T06:55:33.751Z,1026.74
2023-02-27T06:56:33.742Z,1026.83
2023-02-27T06:57:34.472Z,1026.77
2023-02-27T06:58:33.687Z,1026.76
2023-02-27T06:59:33.842Z,1026.83
2023-02-27T07:00:33.702Z,1026.78
2023-02-27T07:01:33.729Z,1026.84
2023-02-27T07:02:33.664Z,1026.83
2023-02-27T07:03:33.697Z,1026.80
2023-02-27T07:04:33.659Z,1026.84
2023-02-27T07:05:33.662Z,1026.85
2023-02-27T07:07:34.016Z,1026.83
2023-02-27T07:07:37.811Z,1026.82
2023-02-27T07:08:33.612Z,1026.87
2023-02-27T07:09:33.613Z,1026.88
2023-02-27T07:10:33.589Z,1026.88
2023-02-27T07:11:33.614Z,1026.85
2023-02-27T07:12:33.521Z,1026.88
2023-02-27T07:13:33.536Z,1026.89
2023-02-27T07:14:33.518Z,1026.88
2023-02-27T07:15:33.559Z,1026.95
2023-02-27T07:16:33.472Z,1026.90
2023-02-27T07:17:33.553Z,1026.93
2023-02-27T07:18:33.468Z,1026.96
2023-02-27T07:19:33.452Z,1026.94
2023-02-27T07:20:33.430Z,1026.96
2023-02-27T07:21:33.456Z,1026.93
2023-02-27T07:22:33.408Z,1026.99
2023-02-27T07:23:33.537Z,1027.01
2023-02-27T07:24:33.377Z,1027.02
2023-02-27T07:25:33.392Z,1027.05
2023-02-27T07:26:33.358Z,1027.05
2023-02-27T07:27:33.362Z,1027.09
2023-02-27T07:28:33.400Z,1027.11
2023-02-27T07:29:33.377Z,1027.12
2023-02-27T07:30:33.302Z,1027.12
2023-02-27T07:31:33.338Z,1027.14
2023-02-27T07:32:33.308Z,1027.16
2023-02-27T07:33:33.266Z,1027.16
2023-02-27T07:34:33.288Z,1027.18
2023-02-27T07:35:33.299Z,1027.11
2023-02-27T07:36:33.270Z,1027.22
2023-02-27T07:37:33.215Z,1027.13
2023-02-27T07:38:33.214Z,1027.16
2023-02-27T07:39:33.212Z,1027.22
2023-02-27T07:40:33.181Z,1027.14
2023-02-27T07:41:33.201Z,1027.22
2023-02-27T07:42:33.183Z,1027.18
2023-02-27T07:43:33.131Z,1027.17
2023-02-27T07:44:33.174Z,1027.21
2023-02-27T07:45:33.126Z,1027.11
2023-02-27T07:46:33.129Z,1027.19
2023-02-27T07:47:33.199Z,1027.16
2023-02-27T07:48:33.129Z,1027.13
2023-02-27T07:49:33.113Z,1027.13
2023-02-27T07:50:33.176Z,1027.13
2023-02-27T07:51:33.046Z,1027.12
2023-02-27T07:52:33.049Z,1027.15
2023-02-27T07:53:33.118Z,1027.09
2023-02-27T07:54:35.364Z,1027.09
2023-02-27T07:55:33.092Z,1027.10
2023-02-27T07:56:33.030Z,1027.14
2023-02-27T07:57:33.000Z,1027.14
2023-02-27T07:58:32.971Z,1027.19
2023-02-27T07:59:32.997Z,1027.17
2023-02-27T08:00:32.965Z,1027.19
2023-02-27T08:01:32.896Z,1027.18
2023-02-27T08:02:32.998Z,1027.19
2023-02-27T08:03:32.911Z,1027.17
2023-02-27T08:04:32.922Z,1027.16
2023-02-27T08:05:32.966Z,1027.12
2023-02-27T08:06:32.902Z,1027.04
2023-02-27T08:07:32.828Z,1027.06
2023-02-27T08:08:32.888Z,1027.06
2023-02-27T08:09:32.819Z,1027.11
2023-02-27T08:10:32.838Z,1027.07
2023-02-27T08:11:33.021Z,1027.05
2023-02-27T08:12:32.794Z,1027.09
2023-02-27T08:14:02.596Z,1027.05
2023-02-27T08:14:33.794Z,1027.08
2023-02-27T08:15:32.727Z,1027.06
2023-02-27T08:16:33.262Z,1026.99
2023-02-27T08:17:32.849Z,1026.98
2023-02-27T08:18:34.943Z,1026.98
2023-02-27T08:19:32.684Z,1027.02
2023-02-27T08:20:32.713Z,1027.00
2023-02-27T08:21:32.670Z,1027.06
2023-02-27T08:22:32.692Z,1027.02
2023-02-27T08:23:32.692Z,1026.97
2023-02-27T08:24:32.650Z,1027.04
2023-02-27T08:25:32.599Z,1026.97
2023-02-27T08:26:32.635Z,1027.00
2023-02-27T08:27:32.588Z,1026.98
2023-02-27T08:28:32.624Z,1026.99
2023-02-27T08:29:32.625Z,1026.98
2023-02-27T08:30:32.568Z,1027.03
2023-02-27T08:31:32.667Z,1027.00
2023-02-27T08:32:32.593Z,1026.95
2023-02-27T08:33:32.478Z,1026.96
2023-02-27T08:34:32.538Z,1026.97
2023-02-27T08:35:32.543Z,1026.90
2023-02-27T08:36:32.492Z,1026.90
2023-02-27T08:37:32.476Z,1026.93
2023-02-27T08:38:32.455Z,1026.93
2023-02-27T08:39:32.443Z,1026.94
2023-02-27T08:40:32.418Z,1026.87
2023-02-27T08:41:32.413Z,1026.91
2023-02-27T08:42:32.433Z,1026.88
2023-02-27T08:43:32.365Z,1026.85
2023-02-27T08:44:32.413Z,1026.90
2023-02-27T08:45:32.418Z,1026.87
2023-02-27T08:46:32.438Z,1026.91
2023-02-27T08:47:32.397Z,1026.89
2023-02-27T08:48:33.075Z,1026.91
2023-02-27T08:49:32.271Z,1026.94
2023-02-27T08:50:32.329Z,1026.93
2023-02-27T08:51:32.289Z,1026.94
2023-02-27T08:52:32.261Z,1026.95
2023-02-27T08:53:32.260Z,1026.89
2023-02-27T08:54:32.284Z,1026.86
2023-02-27T08:55:32.204Z,1026.86
2023-02-27T08:56:32.260Z,1026.86
2023-02-27T08:57:32.206Z,1026.82
2023-02-27T08:58:32.199Z,1026.81
2023-02-27T08:59:32.296Z,1026.82
2023-02-27T09:00:32.164Z,1026.82
2023-02-27T09:01:32.202Z,1026.85
2023-02-27T09:02:32.219Z,1026.85
2023-02-27T09:03:32.102Z,1026.86
2023-02-27T09:04:32.138Z,1026.89
2023-02-27T09:05:32.127Z,1026.92
2023-02-27T09:06:32.397Z,1026.86
2023-02-27T09:07:32.044Z,1026.86
2023-02-27T09:08:32.096Z,1026.86
2023-02-27T09:09:32.053Z,1026.84
2023-02-27T09:10:32.023Z,1026.83
2023-02-27T09:11:32.069Z,1026.82
2023-02-27T09:12:32.023Z,1026.76
2023-02-27T09:13:31.961Z,1026.80
2023-02-27T09:14:32.005Z,1026.81
2023-02-27T09:15:31.931Z,1026.81
2023-02-27T09:16:32.110Z,1026.85
2023-02-27T09:17:32.055Z,1026.83
2023-02-27T09:18:31.934Z,1026.84
2023-02-27T09:19:31.922Z,1026.83
2023-02-27T09:20:31.988Z,1026.84
2023-02-27T09:21:31.886Z,1026.85
2023-02-27T09:22:31.912Z,1026.86
2023-02-27T09:23:31.992Z,1026.85
2023-02-27T09:24:31.873Z,1026.85
2023-02-27T09:25:31.845Z,1026.87
2023-02-27T09:26:42.207Z,1026.90
2023-02-27T09:27:32.778Z,1026.89
2023-02-27T09:28:31.837Z,1026.96
2023-02-27T09:29:31.856Z,1026.93
2023-02-27T09:30:31.795Z,1026.90
2023-02-27T09:31:33.398Z,1026.92
2023-02-27T09:32:31.881Z,1026.93
2023-02-27T09:33:31.711Z,1026.92
2023-02-27T09:34:31.745Z,1026.94
2023-02-27T09:35:31.752Z,1026.98
2023-02-27T09:36:31.734Z,1026.93
2023-02-27T09:37:31.691Z,1026.93
2023-02-27T09:38:31.663Z,1026.95
2023-02-27T09:39:31.657Z,1026.93
2023-02-27T09:40:31.649Z,1026.93
2023-02-27T09:41:31.644Z,1026.95
2023-02-27T09:42:31.656Z,1026.92
2023-02-27T09:43:31.580Z,1027.00
2023-02-27T09:44:45.351Z,1026.95
2023-02-27T09:45:32.603Z,1026.99
2023-02-27T09:46:31.572Z,1026.99
2023-02-27T09:47:31.662Z,1027.01
2023-02-27T09:48:31.549Z,1027.02
2023-02-27T09:49:31.514Z,1027.03
2023-02-27T09:50:33.643Z,1026.98
2023-02-27T09:51:31.474Z,1027.02
2023-02-27T09:52:31.530Z,1027.02
2023-02-27T09:53:31.499Z,1027.04
2023-02-27T09:54:31.446Z,1027.02
2023-02-27T09:55:31.416Z,1027.00
2023-02-27T09:56:31.475Z,1026.99
2023-02-27T09:57:31.423Z,1026.98
2023-02-27T09:58:31.409Z,1027.03
2023-02-27T09:59:31.513Z,1027.05
2023-02-27T10:00:31.368Z,1027.02
2023-02-27T10:01:31.337Z,1027.01
2023-02-27T10:02:31.385Z,1027.06
2023-02-27T10:03:31.399Z,1027.02
2023-02-27T10:04:31.364Z,1027.00
2023-02-27T10:05:31.353Z,1027.03
2023-02-27T10:06:31.295Z,1027.01
2023-02-27T10:07:31.286Z,1027.04
2023-02-27T10:08:31.259Z,1027.06
2023-02-27T10:09:31.239Z,1027.10
2023-02-27T10:10:31.291Z,1027.10
2023-02-27T10:11:31.380Z,1027.09
2023-02-27T10:12:31.216Z,1027.01
2023-02-27T10:13:31.185Z,1027.06
2023-02-27T10:14:31.221Z,1027.06
2023-02-27T10:15:31.164Z,1027.01
2023-02-27T10:16:31.488Z,1027.03
2023-02-27T10:17:31.194Z,1027.04
2023-02-27T10:18:31.218Z,1027.03
2023-02-27T10:19:31.124Z,1027.04
2023-02-27T10:20:31.110Z,1027.05
2023-02-27T10:21:31.541Z,1026.98
2023-02-27T10:22:31.138Z,1026.99
2023-02-27T10:23:31.170Z,1026.97
2023-02-27T10:24:31.095Z,1026.95
2023-02-27T10:25:32.341Z,1027.01
2023-02-27T10:26:31.051Z,1026.95
2023-02-27T10:27:31.003Z,1027.00
2023-02-27T10:28:31.046Z,1027.01
2023-02-27T10:29:31.114Z,1027.03
2023-02-27T10:30:34.302Z,1027.02
2023-02-27T10:31:31.241Z,1027.00
2023-02-27T10:32:30.997Z,1027.05
2023-02-27T10:33:30.913Z,1027.08
2023-02-27T10:34:30.959Z,1027.04
2023-02-27T10:35:30.971Z,1027.00
2023-02-27T10:36:34.331Z,1027.06
2023-02-27T10:37:30.914Z,1027.06
2023-02-27T10:38:30.893Z,1027.04
2023-02-27T10:39:30.863Z,1027.08
2023-02-27T10:40:30.854Z,1027.09
2023-02-27T10:41:30.899Z,1027.04
2023-02-27T10:42:30.853Z,1027.07
2023-02-27T10:43:30.795Z,1027.13
2023-02-27T10:44:30.832Z,1027.12
2023-02-27T10:45:30.776Z,1027.11
2023-02-27T10:46:31.314Z,1027.10
2023-02-27T10:47:30.882Z,1027.06
2023-02-27T10:48:30.762Z,1027.13
2023-02-27T10:49:30.697Z,1027.09
2023-02-27T10:50:30.741Z,1027.10
2023-02-27T10:51:30.769Z,1027.09
2023-02-27T10:52:30.778Z,1027.11
2023-02-27T10:53:30.722Z,1027.10
2023-02-27T10:54:30.662Z,1027.09
2023-02-27T10:55:30.652Z,1027.11
2023-02-27T10:56:30.654Z,1027.04
2023-02-27T10:57:30.615Z,1027.08
2023-02-27T10:58:30.794Z,1027.08
2023-02-27T10:59:30.700Z,1027.04
2023-02-27T11:00:30.606Z,1027.02
2023-02-27T11:01:30.616Z,1026.98
2023-02-27T11:02:30.602Z,1027.03
2023-02-27T11:03:30.495Z,1027.00
2023-02-27T11:04:30.582Z,1027.07
2023-02-27T11:05:30.532Z,1027.10
2023-02-27T11:06:30.489Z,1027.06
2023-02-27T11:07:30.471Z,1027.05
2023-02-27T11:08:30.477Z,1027.04
2023-02-27T11:09:30.440Z,1027.07
2023-02-27T11:10:30.475Z,1027.00
2023-02-27T11:11:30.512Z,1027.01
2023-02-27T11:12:30.435Z,1027.06
2023-02-27T11:13:30.397Z,1027.02
2023-02-27T11:14:30.378Z,1027.03
2023-02-27T11:15:30.394Z,1027.03
2023-02-27T11:16:30.385Z,1027.07
2023-02-27T11:17:30.472Z,1027.00
2023-02-27T11:18:30.328Z,1026.96
2023-02-27T11:19:30.320Z,1026.98
2023-02-27T11:20:30.299Z,1026.99
2023-02-27T11:21:30.806Z,1026.94
2023-02-27T11:22:30.359Z,1027.01
2023-02-27T11:23:30.281Z,1027.01
2023-02-27T11:24:30.279Z,1026.98
2023-02-27T11:25:30.256Z,1027.01
2023-02-27T11:26:30.257Z,1027.00
2023-02-27T11:27:30.222Z,1027.03
2023-02-27T11:28:30.211Z,1027.02
2023-02-27T11:29:30.233Z,1026.97
2023-02-27T11:30:30.210Z,1026.97
2023-02-27T11:31:30.576Z,1026.88
2023-02-27T11:32:30.169Z,1026.86
2023-02-27T11:33:30.418Z,1026.89
2023-02-27T11:34:30.153Z,1026.90
2023-02-27T11:35:30.318Z,1026.87
2023-02-27T11:36:30.124Z,1026.87
2023-02-27T11:37:30.121Z,1026.85
2023-02-27T11:38:30.103Z,1026.85
2023-02-27T11:39:30.055Z,1026.78
2023-02-27T11:40:30.078Z,1026.76
2023-02-27T11:41:30.231Z,1026.81
2023-02-27T11:42:30.098Z,1026.79
2023-02-27T11:43:30.012Z,1026.79
2023-02-27T11:44:49.830Z,1026.78
2023-02-27T11:46:17.871Z,1026.79
2023-02-27T11:46:47.006Z,1026.82
2023-02-27T11:47:31.024Z,1026.77
2023-02-27T11:48:29.974Z,1026.78
2023-02-27T11:49:29.968Z,1026.70
2023-02-27T11:50:29.928Z,1026.77
2023-02-27T11:51:30.009Z,1026.73
2023-02-27T11:52:30.023Z,1026.75
2023-02-27T11:53:29.928Z,1026.75
2023-02-27T11:54:29.860Z,1026.76
2023-02-27T11:55:29.855Z,1026.77
2023-02-27T11:56:29.830Z,1026.76
2023-02-27T11:57:29.849Z,1026.71
2023-02-27T11:58:29.897Z,1026.72
2023-02-27T11:59:29.836Z,1026.72
2023-02-27T12:00:29.757Z,1026.73
2023-02-27T12:01:29.862Z,1026.71
2023-02-27T12:02:29.790Z,1026.71
2023-02-27T12:03:29.767Z,1026.71
2023-02-27T12:04:29.751Z,1026.74
2023-02-27T12:05:29.714Z,1026.71
2023-02-27T12:06:29.707Z,1026.71